Flight Track Log - Related Links

Times and Time Zones

All times are in EDT time to prevent confusion due to time zone crossing. See the EJA929 flight status page for this flight to view local times or setup timezone preferences in your user account.

Time Position Orientation Groundspeed Altitude Reporting Facility
EDT Latitude Longitude Course Direction KTS MPH feet Rate Location/Type
Sun 06:05:16 PM 38.9000 -77.4333 191° South 222 255 3,400  Level Potomac TRACON
Sun 06:06:17 PM 38.8333 -77.4500 191° South 254 292 5,900 1,300 Climbing Potomac TRACON
Sun 06:07:16 PM 38.7667 -77.5000 210° Southwest 258 297 6,000 50 Climbing Potomac TRACON
Sun 06:08:17 PM 38.7333 -77.5667 237° Southwest 249 287 6,000  Level Potomac TRACON
Sun 06:09:17 PM 38.6833 -77.6333 226° Southwest 260 299 6,000  Level Potomac TRACON
Sun 06:10:17 PM 38.6333 -77.7167 232° Southwest 257 296 6,000  Level Potomac TRACON
Sun 06:11:17 PM 38.5833 -77.7833 226° Southwest 253 291 6,000  Level Potomac TRACON
Sun 06:12:11 PM 38.5500 -77.8333 230° Southwest 250 288 6,000  Level Potomac TRACON
Sun 06:13:17 PM 38.5000 -77.9167 233° Southwest 248 285 6,000  Level Potomac TRACON
Sun 06:14:17 PM 38.4500 -77.9833 226° Southwest 252 290 6,000 -250 Level Potomac TRACON
Sun 06:15:17 PM 38.4000 -78.0500 226° Southwest 249 287 5,500 -950 Descending Potomac TRACON
Sun 06:16:17 PM 38.3500 -78.0833 208° Southwest 242 278 4,100 -750 Descending Potomac TRACON
Sun 06:17:17 PM 38.2833 -78.1333 210° Southwest 247 284 4,000 -50 Descending Potomac TRACON
Sun 06:18:17 PM 38.2333 -78.1833 218° Southwest 259 298 4,000  Level Potomac TRACON
Sun 06:19:17 PM 38.1667 -78.2333 211° Southwest 251 289 4,000 -52 Level Potomac TRACON
Sun 06:20:12 PM 38.1167 -78.2667 208° Southwest 235 270 3,900 -365 Descending Potomac TRACON
Sun 06:21:12 PM 38.0667 -78.3167 218° Southwest 203 234 3,300 -300 Descending Potomac TRACON
Sun 06:22:12 PM 38.0333 -78.3500 218° Southwest 175 201 3,300  Level Potomac TRACON
Sun 06:23:12 PM 38.0000 -78.3833 218° Southwest 168 193 3,300  Level Potomac TRACON
Sun 06:24:12 PM 37.9667 -78.4167 218° Southwest 169 194 3,300  Level Potomac TRACON
Sun 06:25:12 PM 37.9500 -78.4833 252° West 173 199 3,300  Level Potomac TRACON
Sun 06:26:12 PM 37.9500 -78.5333 270° West 205 236 3,300  Level Potomac TRACON
Sun 06:27:12 PM 38.0000 -78.5167 15° North 187 215 3,300 -450 Level Potomac TRACON
Sun 06:28:12 PM 38.0500 -78.5000 15° North 164 189 2,400 -850 Descending Potomac TRACON
Sun 06:29:12 PM 38.0833 -78.4833 21° North 155 178 1,600 -800 Descending Potomac TRACON
Sun 06:31:00 PM 38.1386 -78.4529 277° West  Level Estimated
Sun 06:38:00 PM 38.1333 -78.4500 277° West  Level FlightAware Approximate
Sun 06:39:00 PM 38.1386 -78.4529 277° West  Level Estimated
Sun 06:40:00 PM 38.1333 -78.4500 277° West  Level FlightAware Approximate
Sun 06:41:00 PM 38.1386 -78.4529 277° West  Level Estimated
Sun 06:42:00 PM 38.1333 -78.4500 277° West  Level FlightAware Approximate

Login

Don't have an account? Register now (free) for customized features, flight alerts, and more!